KSUT

Cape Fear Regional Jetport / Howie Franklin Field Airport

Oak Island, North Carolina, USA
METAR KSUT 231125Z AUTO 00000KT 10SM SCT050 SCT070 BKN080 13/09 A3021 RMK AO2 T01280085
Observed Flight Rules
Oct-23 @ 11:25 UTC (25 minutes ago) Visual Flight Rules
Visibility Clouds
10 miles
  • Scattered at 5,000' AGL
  • Scattered at 7,000' AGL
  • Broken at 8,000' AGL
Temperatures Readings
Current 13°C / 55°F
Dewpoint 9°C / 48°F
Humidity 77%
Altimeter 30.21" Hg
Pressure 1023 hPa
Elevation 8
METAR KSUT 231125Z AUTO 00000KT 10SM SCT050 SCT070 BKN080 13/09 A3021 RMK AO2 T01280085
Observed Flight Rules
Oct-23 @ 11:25 UTC
(25 minutes ago)
VFR
Clouds
  • Scattered at 5,000' AGL
  • Scattered at 7,000' AGL
  • Broken at 8,000' AGL
Temperature Dewpoint
13°C / 55°F 9°C / 48°F
Humidity Altimeter Pressure
77% 30.21" Hg 1023 hPa